sensor_id;sensor_type;location;lat;lon;timestamp;P1;durP1;ratioP1;P2;durP2;ratioP2
51124;SDS011;37163;55.556;39.108;2023-05-07T00:01:15;10.93;;;4.93;;
51124;SDS011;37163;55.556;39.108;2023-05-07T00:03:41;9.38;;;4.63;;
51124;SDS011;37163;55.556;39.108;2023-05-07T00:06:08;14.80;;;6.32;;
51124;SDS011;37163;55.556;39.108;2023-05-07T00:08:34;11.60;;;6.18;;
51124;SDS011;37163;55.556;39.108;2023-05-07T00:11:01;11.95;;;5.88;;
51124;SDS011;37163;55.556;39.108;2023-05-07T00:13:27;12.10;;;6.40;;
51124;SDS011;37163;55.556;39.108;2023-05-07T00:15:56;15.40;;;6.50;;
51124;SDS011;37163;55.556;39.108;2023-05-07T00:18:23;11.10;;;6.18;;
51124;SDS011;37163;55.556;39.108;2023-05-07T00:20:49;11.70;;;6.05;;
51124;SDS011;37163;55.556;39.108;2023-05-07T00:23:16;12.98;;;6.18;;
51124;SDS011;37163;55.556;39.108;2023-05-07T00:25:42;13.68;;;6.88;;
51124;SDS011;37163;55.556;39.108;2023-05-07T00:28:08;12.57;;;5.72;;
51124;SDS011;37163;55.556;39.108;2023-05-07T00:30:35;16.52;;;6.15;;
51124;SDS011;37163;55.556;39.108;2023-05-07T00:33:02;13.85;;;5.78;;
51124;SDS011;37163;55.556;39.108;2023-05-07T00:35:28;11.70;;;5.57;;
51124;SDS011;37163;55.556;39.108;2023-05-07T00:37:56;11.13;;;5.25;;
51124;SDS011;37163;55.556;39.108;2023-05-07T00:40:22;19.42;;;7.10;;
51124;SDS011;37163;55.556;39.108;2023-05-07T00:42:48;11.88;;;5.60;;
51124;SDS011;37163;55.556;39.108;2023-05-07T00:45:15;11.15;;;4.90;;
51124;SDS011;37163;55.556;39.108;2023-05-07T00:47:42;11.90;;;5.43;;
51124;SDS011;37163;55.556;39.108;2023-05-07T00:50:09;10.40;;;5.25;;
51124;SDS011;37163;55.556;39.108;2023-05-07T00:52:36;13.40;;;5.70;;
51124;SDS011;37163;55.556;39.108;2023-05-07T00:55:04;17.88;;;7.05;;
51124;SDS011;37163;55.556;39.108;2023-05-07T00:57:38;11.93;;;6.18;;
51124;SDS011;37163;55.556;39.108;2023-05-07T01:00:06;15.07;;;6.72;;
51124;SDS011;37163;55.556;39.108;2023-05-07T01:02:43;15.02;;;6.78;;
51124;SDS011;37163;55.556;39.108;2023-05-07T01:05:14;13.38;;;5.53;;
51124;SDS011;37163;55.556;39.108;2023-05-07T01:07:42;17.50;;;6.90;;
51124;SDS011;37163;55.556;39.108;2023-05-07T01:10:09;15.55;;;6.30;;
51124;SDS011;37163;55.556;39.108;2023-05-07T01:12:37;16.40;;;7.15;;
51124;SDS011;37163;55.556;39.108;2023-05-07T01:15:03;15.88;;;5.72;;
51124;SDS011;37163;55.556;39.108;2023-05-07T01:17:34;17.95;;;5.95;;
51124;SDS011;37163;55.556;39.108;2023-05-07T01:20:04;12.57;;;5.78;;
51124;SDS011;37163;55.556;39.108;2023-05-07T01:22:34;13.95;;;6.28;;
51124;SDS011;37163;55.556;39.108;2023-05-07T01:25:06;14.52;;;5.93;;
51124;SDS011;37163;55.556;39.108;2023-05-07T01:27:35;14.68;;;4.88;;
51124;SDS011;37163;55.556;39.108;2023-05-07T01:30:03;11.55;;;5.18;;
51124;SDS011;37163;55.556;39.108;2023-05-07T01:32:36;10.85;;;4.80;;
51124;SDS011;37163;55.556;39.108;2023-05-07T01:35:12;12.95;;;5.60;;
51124;SDS011;37163;55.556;39.108;2023-05-07T01:37:42;12.30;;;6.10;;
51124;SDS011;37163;55.556;39.108;2023-05-07T01:40:08;18.00;;;6.82;;
51124;SDS011;37163;55.556;39.108;2023-05-07T01:42:35;15.73;;;6.97;;
51124;SDS011;37163;55.556;39.108;2023-05-07T01:45:02;16.23;;;6.80;;
51124;SDS011;37163;55.556;39.108;2023-05-07T01:47:30;14.13;;;6.78;;
51124;SDS011;37163;55.556;39.108;2023-05-07T01:49:56;12.13;;;6.07;;
51124;SDS011;37163;55.556;39.108;2023-05-07T01:52:23;13.82;;;7.00;;
51124;SDS011;37163;55.556;39.108;2023-05-07T01:55:09;14.82;;;7.38;;
51124;SDS011;37163;55.556;39.108;2023-05-07T01:57:35;19.17;;;7.95;;
51124;SDS011;37163;55.556;39.108;2023-05-07T02:00:02;17.80;;;9.00;;
51124;SDS011;37163;55.556;39.108;2023-05-07T02:02:42;22.00;;;8.63;;
51124;SDS011;37163;55.556;39.108;2023-05-07T02:05:18;20.33;;;8.65;;
51124;SDS011;37163;55.556;39.108;2023-05-07T02:07:49;17.65;;;7.95;;
51124;SDS011;37163;55.556;39.108;2023-05-07T02:10:16;18.85;;;7.78;;
51124;SDS011;37163;55.556;39.108;2023-05-07T02:12:43;17.42;;;7.30;;
51124;SDS011;37163;55.556;39.108;2023-05-07T02:15:10;15.68;;;7.13;;
51124;SDS011;37163;55.556;39.108;2023-05-07T02:17:39;13.57;;;7.22;;
51124;SDS011;37163;55.556;39.108;2023-05-07T02:20:25;14.23;;;6.63;;
51124;SDS011;37163;55.556;39.108;2023-05-07T02:23:12;12.35;;;6.43;;
51124;SDS011;37163;55.556;39.108;2023-05-07T02:25:38;14.00;;;7.13;;
51124;SDS011;37163;55.556;39.108;2023-05-07T02:28:05;11.10;;;5.53;;
51124;SDS011;37163;55.556;39.108;2023-05-07T02:30:52;10.77;;;4.85;;
51124;SDS011;37163;55.556;39.108;2023-05-07T02:33:19;13.93;;;7.38;;
51124;SDS011;37163;55.556;39.108;2023-05-07T02:35:46;17.45;;;6.88;;
51124;SDS011;37163;55.556;39.108;2023-05-07T02:38:15;16.98;;;7.38;;
51124;SDS011;37163;55.556;39.108;2023-05-07T02:40:43;13.75;;;6.75;;
51124;SDS011;37163;55.556;39.108;2023-05-07T02:43:09;16.20;;;7.65;;
51124;SDS011;37163;55.556;39.108;2023-05-07T02:45:37;12.05;;;6.80;;
51124;SDS011;37163;55.556;39.108;2023-05-07T02:48:05;12.23;;;7.13;;
51124;SDS011;37163;55.556;39.108;2023-05-07T02:50:32;14.82;;;7.82;;
51124;SDS011;37163;55.556;39.108;2023-05-07T02:52:58;14.50;;;6.40;;
51124;SDS011;37163;55.556;39.108;2023-05-07T02:55:25;13.23;;;6.35;;
51124;SDS011;37163;55.556;39.108;2023-05-07T02:57:51;11.35;;;6.50;;
51124;SDS011;37163;55.556;39.108;2023-05-07T03:00:18;12.45;;;5.05;;
51124;SDS011;37163;55.556;39.108;2023-05-07T03:03:08;9.30;;;5.00;;
51124;SDS011;37163;55.556;39.108;2023-05-07T03:05:35;8.65;;;5.35;;
51124;SDS011;37163;55.556;39.108;2023-05-07T03:08:01;10.52;;;4.95;;
51124;SDS011;37163;55.556;39.108;2023-05-07T03:10:30;13.00;;;5.22;;
51124;SDS011;37163;55.556;39.108;2023-05-07T03:12:56;11.60;;;6.15;;
51124;SDS011;37163;55.556;39.108;2023-05-07T03:15:22;10.25;;;5.28;;
51124;SDS011;37163;55.556;39.108;2023-05-07T03:17:49;10.45;;;4.95;;
51124;SDS011;37163;55.556;39.108;2023-05-07T03:20:15;10.32;;;5.00;;
51124;SDS011;37163;55.556;39.108;2023-05-07T03:22:42;9.32;;;4.43;;
51124;SDS011;37163;55.556;39.108;2023-05-07T03:25:09;9.25;;;4.75;;
51124;SDS011;37163;55.556;39.108;2023-05-07T03:27:36;9.15;;;4.80;;
51124;SDS011;37163;55.556;39.108;2023-05-07T03:30:04;6.50;;;3.20;;
51124;SDS011;37163;55.556;39.108;2023-05-07T03:32:32;6.78;;;3.80;;
51124;SDS011;37163;55.556;39.108;2023-05-07T03:34:59;8.38;;;4.53;;
51124;SDS011;37163;55.556;39.108;2023-05-07T03:37:25;7.55;;;4.63;;
51124;SDS011;37163;55.556;39.108;2023-05-07T03:39:52;7.53;;;4.05;;
51124;SDS011;37163;55.556;39.108;2023-05-07T03:42:19;6.53;;;3.22;;
51124;SDS011;37163;55.556;39.108;2023-05-07T03:44:49;5.00;;;2.78;;
51124;SDS011;37163;55.556;39.108;2023-05-07T03:47:15;5.75;;;2.70;;
51124;SDS011;37163;55.556;39.108;2023-05-07T03:49:43;7.97;;;3.05;;
51124;SDS011;37163;55.556;39.108;2023-05-07T03:52:09;7.72;;;3.47;;
51124;SDS011;37163;55.556;39.108;2023-05-07T03:54:36;4.03;;;2.55;;
51124;SDS011;37163;55.556;39.108;2023-05-07T03:57:03;5.82;;;2.80;;
51124;SDS011;37163;55.556;39.108;2023-05-07T03:59:30;3.72;;;2.20;;
51124;SDS011;37163;55.556;39.108;2023-05-07T04:01:57;4.32;;;2.45;;
51124;SDS011;37163;55.556;39.108;2023-05-07T04:04:26;5.63;;;2.45;;
51124;SDS011;37163;55.556;39.108;2023-05-07T04:06:53;4.45;;;2.60;;
51124;SDS011;37163;55.556;39.108;2023-05-07T04:09:20;3.80;;;2.08;;
51124;SDS011;37163;55.556;39.108;2023-05-07T04:11:47;3.28;;;2.40;;
51124;SDS011;37163;55.556;39.108;2023-05-07T04:14:14;4.78;;;2.90;;
51124;SDS011;37163;55.556;39.108;2023-05-07T04:16:40;4.15;;;2.80;;
51124;SDS011;37163;55.556;39.108;2023-05-07T04:19:09;4.65;;;3.05;;
51124;SDS011;37163;55.556;39.108;2023-05-07T04:21:37;4.90;;;3.13;;
51124;SDS011;37163;55.556;39.108;2023-05-07T04:24:03;5.78;;;3.60;;
51124;SDS011;37163;55.556;39.108;2023-05-07T04:26:30;4.78;;;3.00;;
51124;SDS011;37163;55.556;39.108;2023-05-07T04:28:57;4.72;;;2.88;;
51124;SDS011;37163;55.556;39.108;2023-05-07T04:31:30;5.88;;;2.65;;
51124;SDS011;37163;55.556;39.108;2023-05-07T04:33:56;4.28;;;2.40;;
51124;SDS011;37163;55.556;39.108;2023-05-07T04:36:23;5.50;;;2.65;;
51124;SDS011;37163;55.556;39.108;2023-05-07T04:38:59;3.85;;;2.60;;
51124;SDS011;37163;55.556;39.108;2023-05-07T04:41:26;4.32;;;2.47;;
51124;SDS011;37163;55.556;39.108;2023-05-07T04:43:53;3.60;;;2.42;;
51124;SDS011;37163;55.556;39.108;2023-05-07T04:46:22;4.63;;;2.42;;
51124;SDS011;37163;55.556;39.108;2023-05-07T04:48:50;3.92;;;2.65;;
51124;SDS011;37163;55.556;39.108;2023-05-07T04:51:16;3.63;;;2.22;;
51124;SDS011;37163;55.556;39.108;2023-05-07T04:53:43;2.80;;;2.05;;
51124;SDS011;37163;55.556;39.108;2023-05-07T04:56:10;3.15;;;1.80;;
51124;SDS011;37163;55.556;39.108;2023-05-07T04:58:40;4.10;;;2.22;;
51124;SDS011;37163;55.556;39.108;2023-05-07T05:01:07;3.08;;;2.03;;
51124;SDS011;37163;55.556;39.108;2023-05-07T05:03:34;4.07;;;2.10;;
51124;SDS011;37163;55.556;39.108;2023-05-07T05:06:01;4.15;;;2.20;;
51124;SDS011;37163;55.556;39.108;2023-05-07T05:08:32;3.28;;;1.90;;
51124;SDS011;37163;55.556;39.108;2023-05-07T05:11:00;3.30;;;1.73;;
51124;SDS011;37163;55.556;39.108;2023-05-07T05:13:28;3.78;;;2.00;;
51124;SDS011;37163;55.556;39.108;2023-05-07T05:15:56;3.38;;;1.80;;
51124;SDS011;37163;55.556;39.108;2023-05-07T05:18:24;3.90;;;1.92;;
51124;SDS011;37163;55.556;39.108;2023-05-07T05:20:51;3.53;;;1.80;;
51124;SDS011;37163;55.556;39.108;2023-05-07T05:23:18;4.32;;;1.60;;
51124;SDS011;37163;55.556;39.108;2023-05-07T05:25:45;3.38;;;1.45;;
51124;SDS011;37163;55.556;39.108;2023-05-07T05:28:13;1.77;;;1.15;;
51124;SDS011;37163;55.556;39.108;2023-05-07T05:30:40;3.50;;;1.40;;
51124;SDS011;37163;55.556;39.108;2023-05-07T05:33:08;4.40;;;1.63;;
51124;SDS011;37163;55.556;39.108;2023-05-07T05:35:35;2.65;;;1.42;;
51124;SDS011;37163;55.556;39.108;2023-05-07T05:38:04;2.10;;;1.17;;
51124;SDS011;37163;55.556;39.108;2023-05-07T05:40:32;5.35;;;1.65;;
51124;SDS011;37163;55.556;39.108;2023-05-07T05:42:59;1.77;;;1.02;;
51124;SDS011;37163;55.556;39.108;2023-05-07T05:45:26;3.00;;;1.30;;
51124;SDS011;37163;55.556;39.108;2023-05-07T05:47:52;1.60;;;0.95;;
51124;SDS011;37163;55.556;39.108;2023-05-07T05:50:19;1.90;;;1.08;;
51124;SDS011;37163;55.556;39.108;2023-05-07T05:52:46;1.63;;;1.00;;
51124;SDS011;37163;55.556;39.108;2023-05-07T05:55:12;1.45;;;0.90;;
51124;SDS011;37163;55.556;39.108;2023-05-07T05:57:40;2.20;;;0.90;;
51124;SDS011;37163;55.556;39.108;2023-05-07T06:00:08;0.65;;;0.63;;
51124;SDS011;37163;55.556;39.108;2023-05-07T06:02:44;2.67;;;1.10;;
51124;SDS011;37163;55.556;39.108;2023-05-07T06:05:15;3.83;;;1.30;;
51124;SDS011;37163;55.556;39.108;2023-05-07T06:07:43;2.65;;;1.60;;
51124;SDS011;37163;55.556;39.108;2023-05-07T06:10:09;2.72;;;1.08;;
51124;SDS011;37163;55.556;39.108;2023-05-07T06:12:36;2.05;;;1.38;;
51124;SDS011;37163;55.556;39.108;2023-05-07T06:15:03;3.15;;;1.23;;
51124;SDS011;37163;55.556;39.108;2023-05-07T06:17:30;1.55;;;0.90;;
51124;SDS011;37163;55.556;39.108;2023-05-07T06:19:57;1.88;;;0.93;;
51124;SDS011;37163;55.556;39.108;2023-05-07T06:22:24;1.63;;;1.10;;
51124;SDS011;37163;55.556;39.108;2023-05-07T06:24:51;2.00;;;1.08;;
51124;SDS011;37163;55.556;39.108;2023-05-07T06:27:17;3.25;;;1.98;;
51124;SDS011;37163;55.556;39.108;2023-05-07T06:29:44;1.67;;;1.00;;
51124;SDS011;37163;55.556;39.108;2023-05-07T06:32:14;1.75;;;1.00;;
51124;SDS011;37163;55.556;39.108;2023-05-07T06:34:44;3.00;;;1.02;;
51124;SDS011;37163;55.556;39.108;2023-05-07T06:37:11;2.50;;;1.10;;
51124;SDS011;37163;55.556;39.108;2023-05-07T06:39:52;3.13;;;1.02;;
51124;SDS011;37163;55.556;39.108;2023-05-07T06:42:19;3.70;;;1.15;;
51124;SDS011;37163;55.556;39.108;2023-05-07T06:44:48;0.90;;;0.80;;
51124;SDS011;37163;55.556;39.108;2023-05-07T06:47:16;2.72;;;1.23;;
51124;SDS011;37163;55.556;39.108;2023-05-07T06:49:47;3.53;;;1.90;;
51124;SDS011;37163;55.556;39.108;2023-05-07T06:52:17;2.60;;;1.35;;
51124;SDS011;37163;55.556;39.108;2023-05-07T06:54:44;3.03;;;1.10;;
51124;SDS011;37163;55.556;39.108;2023-05-07T06:57:14;1.83;;;1.00;;
51124;SDS011;37163;55.556;39.108;2023-05-07T06:59:41;1.83;;;1.02;;
51124;SDS011;37163;55.556;39.108;2023-05-07T07:02:08;2.20;;;0.95;;
51124;SDS011;37163;55.556;39.108;2023-05-07T07:04:35;1.52;;;1.23;;
51124;SDS011;37163;55.556;39.108;2023-05-07T07:07:05;3.15;;;1.50;;
51124;SDS011;37163;55.556;39.108;2023-05-07T07:09:33;2.58;;;1.20;;
51124;SDS011;37163;55.556;39.108;2023-05-07T07:12:00;2.92;;;1.40;;
51124;SDS011;37163;55.556;39.108;2023-05-07T07:14:29;2.72;;;1.33;;
51124;SDS011;37163;55.556;39.108;2023-05-07T07:16:56;3.05;;;1.33;;
51124;SDS011;37163;55.556;39.108;2023-05-07T07:19:24;1.13;;;1.00;;
51124;SDS011;37163;55.556;39.108;2023-05-07T07:21:55;1.92;;;1.20;;
51124;SDS011;37163;55.556;39.108;2023-05-07T07:24:21;2.33;;;1.30;;
51124;SDS011;37163;55.556;39.108;2023-05-07T07:26:52;1.85;;;1.02;;
51124;SDS011;37163;55.556;39.108;2023-05-07T07:29:22;1.83;;;1.10;;
51124;SDS011;37163;55.556;39.108;2023-05-07T07:31:52;1.27;;;0.80;;
51124;SDS011;37163;55.556;39.108;2023-05-07T07:34:20;2.45;;;1.17;;
51124;SDS011;37163;55.556;39.108;2023-05-07T07:36:47;2.78;;;1.42;;
51124;SDS011;37163;55.556;39.108;2023-05-07T07:39:17;2.08;;;1.52;;
51124;SDS011;37163;55.556;39.108;2023-05-07T07:41:46;1.80;;;1.20;;
51124;SDS011;37163;55.556;39.108;2023-05-07T07:44:13;2.55;;;1.35;;
51124;SDS011;37163;55.556;39.108;2023-05-07T07:46:40;2.08;;;1.23;;
51124;SDS011;37163;55.556;39.108;2023-05-07T07:49:07;2.10;;;1.20;;
51124;SDS011;37163;55.556;39.108;2023-05-07T07:51:34;2.60;;;1.27;;
51124;SDS011;37163;55.556;39.108;2023-05-07T07:54:01;3.40;;;1.42;;
51124;SDS011;37163;55.556;39.108;2023-05-07T07:56:31;1.95;;;1.30;;
51124;SDS011;37163;55.556;39.108;2023-05-07T07:59:00;1.63;;;1.08;;
51124;SDS011;37163;55.556;39.108;2023-05-07T08:01:29;1.55;;;1.25;;
51124;SDS011;37163;55.556;39.108;2023-05-07T08:03:59;3.38;;;1.58;;
51124;SDS011;37163;55.556;39.108;2023-05-07T08:06:33;2.13;;;1.13;;
51124;SDS011;37163;55.556;39.108;2023-05-07T08:09:01;2.50;;;1.48;;
51124;SDS011;37163;55.556;39.108;2023-05-07T08:11:30;3.00;;;1.48;;
51124;SDS011;37163;55.556;39.108;2023-05-07T08:14:02;2.58;;;1.20;;
51124;SDS011;37163;55.556;39.108;2023-05-07T08:16:32;3.88;;;1.50;;
51124;SDS011;37163;55.556;39.108;2023-05-07T08:19:03;2.08;;;1.20;;
51124;SDS011;37163;55.556;39.108;2023-05-07T08:21:30;1.92;;;1.00;;
51124;SDS011;37163;55.556;39.108;2023-05-07T08:23:58;3.08;;;1.20;;
51124;SDS011;37163;55.556;39.108;2023-05-07T08:26:26;2.47;;;1.13;;
51124;SDS011;37163;55.556;39.108;2023-05-07T08:28:52;2.92;;;1.35;;
51124;SDS011;37163;55.556;39.108;2023-05-07T08:31:19;2.70;;;1.20;;
51124;SDS011;37163;55.556;39.108;2023-05-07T08:33:47;1.33;;;1.05;;
51124;SDS011;37163;55.556;39.108;2023-05-07T08:36:14;2.38;;;1.40;;
51124;SDS011;37163;55.556;39.108;2023-05-07T08:38:41;3.47;;;1.63;;
51124;SDS011;37163;55.556;39.108;2023-05-07T08:41:09;2.58;;;1.10;;
51124;SDS011;37163;55.556;39.108;2023-05-07T08:43:41;1.88;;;1.38;;
51124;SDS011;37163;55.556;39.108;2023-05-07T08:46:22;2.08;;;1.17;;
51124;SDS011;37163;55.556;39.108;2023-05-07T08:49:03;4.45;;;1.55;;
51124;SDS011;37163;55.556;39.108;2023-05-07T08:51:31;4.53;;;1.60;;
51124;SDS011;37163;55.556;39.108;2023-05-07T08:54:02;3.63;;;1.77;;
51124;SDS011;37163;55.556;39.108;2023-05-07T08:56:32;3.30;;;1.50;;
51124;SDS011;37163;55.556;39.108;2023-05-07T08:58:59;4.97;;;1.77;;
51124;SDS011;37163;55.556;39.108;2023-05-07T09:01:28;7.63;;;1.98;;
51124;SDS011;37163;55.556;39.108;2023-05-07T09:03:56;4.60;;;1.95;;
51124;SDS011;37163;55.556;39.108;2023-05-07T09:06:26;2.17;;;1.35;;
51124;SDS011;37163;55.556;39.108;2023-05-07T09:08:54;2.72;;;1.58;;
51124;SDS011;37163;55.556;39.108;2023-05-07T09:11:37;5.38;;;2.17;;
51124;SDS011;37163;55.556;39.108;2023-05-07T09:14:03;1.67;;;0.90;;
51124;SDS011;37163;55.556;39.108;2023-05-07T09:16:35;5.78;;;1.67;;
51124;SDS011;37163;55.556;39.108;2023-05-07T09:19:03;9.02;;;2.55;;
51124;SDS011;37163;55.556;39.108;2023-05-07T09:21:29;2.70;;;1.08;;
51124;SDS011;37163;55.556;39.108;2023-05-07T09:23:58;5.70;;;1.65;;
51124;SDS011;37163;55.556;39.108;2023-05-07T09:26:34;4.18;;;1.55;;
51124;SDS011;37163;55.556;39.108;2023-05-07T09:29:03;5.13;;;1.50;;
51124;SDS011;37163;55.556;39.108;2023-05-07T09:31:30;6.65;;;3.00;;
51124;SDS011;37163;55.556;39.108;2023-05-07T09:33:57;6.32;;;2.63;;
51124;SDS011;37163;55.556;39.108;2023-05-07T09:36:28;2.50;;;1.40;;
51124;SDS011;37163;55.556;39.108;2023-05-07T09:38:56;2.85;;;1.08;;
51124;SDS011;37163;55.556;39.108;2023-05-07T09:41:26;3.03;;;1.58;;
51124;SDS011;37163;55.556;39.108;2023-05-07T09:46:36;2.13;;;1.23;;
51124;SDS011;37163;55.556;39.108;2023-05-07T09:49:16;2.63;;;1.50;;
51124;SDS011;37163;55.556;39.108;2023-05-07T09:51:58;2.60;;;1.00;;
51124;SDS011;37163;55.556;39.108;2023-05-07T09:54:30;1.73;;;1.17;;
51124;SDS011;37163;55.556;39.108;2023-05-07T09:57:01;3.05;;;1.40;;
51124;SDS011;37163;55.556;39.108;2023-05-07T09:59:29;3.25;;;1.65;;
51124;SDS011;37163;55.556;39.108;2023-05-07T10:02:00;2.63;;;1.40;;
51124;SDS011;37163;55.556;39.108;2023-05-07T10:04:29;3.42;;;1.33;;
51124;SDS011;37163;55.556;39.108;2023-05-07T10:06:56;2.60;;;1.30;;
51124;SDS011;37163;55.556;39.108;2023-05-07T10:09:25;3.97;;;1.75;;
51124;SDS011;37163;55.556;39.108;2023-05-07T10:11:52;4.88;;;1.40;;
51124;SDS011;37163;55.556;39.108;2023-05-07T10:14:21;4.85;;;1.85;;
51124;SDS011;37163;55.556;39.108;2023-05-07T10:16:48;3.00;;;1.20;;
51124;SDS011;37163;55.556;39.108;2023-05-07T10:19:16;5.55;;;2.60;;
51124;SDS011;37163;55.556;39.108;2023-05-07T10:21:56;5.07;;;2.03;;
51124;SDS011;37163;55.556;39.108;2023-05-07T10:24:34;2.58;;;1.17;;
51124;SDS011;37163;55.556;39.108;2023-05-07T10:27:09;2.25;;;1.10;;
51124;SDS011;37163;55.556;39.108;2023-05-07T10:29:41;2.78;;;1.20;;
51124;SDS011;37163;55.556;39.108;2023-05-07T10:34:58;2.42;;;1.20;;
51124;SDS011;37163;55.556;39.108;2023-05-07T10:37:27;3.15;;;1.25;;
51124;SDS011;37163;55.556;39.108;2023-05-07T10:39:56;2.00;;;1.20;;
51124;SDS011;37163;55.556;39.108;2023-05-07T10:42:26;1.40;;;0.90;;
51124;SDS011;37163;55.556;39.108;2023-05-07T10:44:55;2.60;;;1.55;;
51124;SDS011;37163;55.556;39.108;2023-05-07T10:47:29;3.55;;;1.10;;
51124;SDS011;37163;55.556;39.108;2023-05-07T10:52:37;2.35;;;1.10;;
51124;SDS011;37163;55.556;39.108;2023-05-07T10:58:23;1.60;;;0.73;;
51124;SDS011;37163;55.556;39.108;2023-05-07T11:01:08;2.45;;;1.20;;
51124;SDS011;37163;55.556;39.108;2023-05-07T11:06:40;2.47;;;1.65;;
51124;SDS011;37163;55.556;39.108;2023-05-07T11:09:09;2.55;;;1.40;;
51124;SDS011;37163;55.556;39.108;2023-05-07T11:11:49;2.35;;;1.15;;
51124;SDS011;37163;55.556;39.108;2023-05-07T11:17:14;3.55;;;1.42;;
51124;SDS011;37163;55.556;39.108;2023-05-07T11:19:50;3.03;;;1.37;;
51124;SDS011;37163;55.556;39.108;2023-05-07T11:22:46;1.48;;;1.10;;
51124;SDS011;37163;55.556;39.108;2023-05-07T11:25:25;1.95;;;1.15;;
51124;SDS011;37163;55.556;39.108;2023-05-07T11:28:08;2.03;;;1.42;;
51124;SDS011;37163;55.556;39.108;2023-05-07T11:30:43;3.72;;;1.30;;
51124;SDS011;37163;55.556;39.108;2023-05-07T11:33:16;3.08;;;1.42;;
51124;SDS011;37163;55.556;39.108;2023-05-07T11:35:53;2.95;;;1.27;;
51124;SDS011;37163;55.556;39.108;2023-05-07T11:38:23;1.73;;;1.00;;
51124;SDS011;37163;55.556;39.108;2023-05-07T11:40:56;1.65;;;1.10;;
51124;SDS011;37163;55.556;39.108;2023-05-07T11:43:27;1.20;;;0.75;;
51124;SDS011;37163;55.556;39.108;2023-05-07T11:45:54;2.05;;;1.30;;
51124;SDS011;37163;55.556;39.108;2023-05-07T11:48:21;1.05;;;0.80;;
51124;SDS011;37163;55.556;39.108;2023-05-07T11:50:52;1.50;;;1.23;;
51124;SDS011;37163;55.556;39.108;2023-05-07T11:53:20;1.20;;;0.77;;
51124;SDS011;37163;55.556;39.108;2023-05-07T11:55:57;1.65;;;1.13;;
51124;SDS011;37163;55.556;39.108;2023-05-07T11:58:24;1.42;;;0.90;;
51124;SDS011;37163;55.556;39.108;2023-05-07T12:00:57;2.47;;;1.40;;
51124;SDS011;37163;55.556;39.108;2023-05-07T12:03:24;1.67;;;1.00;;
51124;SDS011;37163;55.556;39.108;2023-05-07T12:05:51;2.10;;;1.13;;
51124;SDS011;37163;55.556;39.108;2023-05-07T12:08:19;1.27;;;0.90;;
51124;SDS011;37163;55.556;39.108;2023-05-07T12:10:48;3.78;;;1.73;;
51124;SDS011;37163;55.556;39.108;2023-05-07T12:15:46;1.35;;;0.80;;
51124;SDS011;37163;55.556;39.108;2023-05-07T12:18:16;1.40;;;0.88;;
51124;SDS011;37163;55.556;39.108;2023-05-07T12:20:43;2.17;;;1.40;;
51124;SDS011;37163;55.556;39.108;2023-05-07T12:23:12;2.40;;;1.25;;
51124;SDS011;37163;55.556;39.108;2023-05-07T12:25:40;2.17;;;1.30;;
51124;SDS011;37163;55.556;39.108;2023-05-07T12:28:13;2.17;;;1.13;;
51124;SDS011;37163;55.556;39.108;2023-05-07T12:30:44;3.25;;;1.20;;
51124;SDS011;37163;55.556;39.108;2023-05-07T12:33:16;4.03;;;1.10;;
51124;SDS011;37163;55.556;39.108;2023-05-07T12:35:44;2.38;;;1.02;;
51124;SDS011;37163;55.556;39.108;2023-05-07T12:38:14;2.17;;;1.30;;
51124;SDS011;37163;55.556;39.108;2023-05-07T12:40:46;2.97;;;1.30;;
51124;SDS011;37163;55.556;39.108;2023-05-07T12:45:44;2.38;;;1.30;;
51124;SDS011;37163;55.556;39.108;2023-05-07T12:48:14;2.15;;;1.20;;
51124;SDS011;37163;55.556;39.108;2023-05-07T12:50:41;3.65;;;1.85;;
51124;SDS011;37163;55.556;39.108;2023-05-07T12:53:11;3.90;;;1.30;;
51124;SDS011;37163;55.556;39.108;2023-05-07T12:55:42;2.85;;;1.48;;
51124;SDS011;37163;55.556;39.108;2023-05-07T12:58:20;2.60;;;1.58;;
51124;SDS011;37163;55.556;39.108;2023-05-07T13:00:51;1.95;;;1.00;;
51124;SDS011;37163;55.556;39.108;2023-05-07T13:03:21;2.33;;;1.15;;
51124;SDS011;37163;55.556;39.108;2023-05-07T13:05:50;3.05;;;1.27;;
51124;SDS011;37163;55.556;39.108;2023-05-07T13:08:26;2.30;;;1.30;;
51124;SDS011;37163;55.556;39.108;2023-05-07T13:10:54;2.22;;;1.02;;
51124;SDS011;37163;55.556;39.108;2023-05-07T13:13:21;1.85;;;1.33;;
51124;SDS011;37163;55.556;39.108;2023-05-07T13:15:58;4.07;;;1.58;;
51124;SDS011;37163;55.556;39.108;2023-05-07T13:18:31;1.55;;;1.40;;
51124;SDS011;37163;55.556;39.108;2023-05-07T13:21:02;2.88;;;1.75;;
51124;SDS011;37163;55.556;39.108;2023-05-07T13:23:34;2.97;;;1.88;;
51124;SDS011;37163;55.556;39.108;2023-05-07T13:26:01;6.28;;;2.30;;
51124;SDS011;37163;55.556;39.108;2023-05-07T13:28:28;3.42;;;1.30;;
51124;SDS011;37163;55.556;39.108;2023-05-07T13:30:55;3.33;;;1.65;;
51124;SDS011;37163;55.556;39.108;2023-05-07T13:33:22;3.55;;;1.90;;
51124;SDS011;37163;55.556;39.108;2023-05-07T13:35:50;4.32;;;1.92;;
51124;SDS011;37163;55.556;39.108;2023-05-07T13:38:16;3.10;;;1.95;;
51124;SDS011;37163;55.556;39.108;2023-05-07T13:40:45;3.20;;;1.55;;
51124;SDS011;37163;55.556;39.108;2023-05-07T13:43:11;3.10;;;1.58;;
51124;SDS011;37163;55.556;39.108;2023-05-07T13:45:38;2.88;;;1.73;;
51124;SDS011;37163;55.556;39.108;2023-05-07T13:48:11;2.72;;;1.50;;
51124;SDS011;37163;55.556;39.108;2023-05-07T13:50:42;3.20;;;1.92;;
51124;SDS011;37163;55.556;39.108;2023-05-07T13:53:08;3.42;;;1.92;;
51124;SDS011;37163;55.556;39.108;2023-05-07T13:55:35;4.10;;;1.63;;
51124;SDS011;37163;55.556;39.108;2023-05-07T13:58:02;4.18;;;1.60;;
51124;SDS011;37163;55.556;39.108;2023-05-07T14:00:30;3.88;;;1.75;;
51124;SDS011;37163;55.556;39.108;2023-05-07T14:02:56;3.28;;;1.40;;
51124;SDS011;37163;55.556;39.108;2023-05-07T14:05:25;2.13;;;1.23;;
51124;SDS011;37163;55.556;39.108;2023-05-07T14:07:54;2.50;;;1.38;;
51124;SDS011;37163;55.556;39.108;2023-05-07T14:10:23;3.22;;;1.48;;
51124;SDS011;37163;55.556;39.108;2023-05-07T14:12:50;2.33;;;1.38;;
51124;SDS011;37163;55.556;39.108;2023-05-07T14:15:18;1.73;;;1.25;;
51124;SDS011;37163;55.556;39.108;2023-05-07T14:17:45;3.10;;;1.42;;
51124;SDS011;37163;55.556;39.108;2023-05-07T14:20:12;3.83;;;1.50;;
51124;SDS011;37163;55.556;39.108;2023-05-07T14:22:40;3.53;;;1.77;;
51124;SDS011;37163;55.556;39.108;2023-05-07T14:25:08;3.00;;;1.70;;
51124;SDS011;37163;55.556;39.108;2023-05-07T14:27:39;7.18;;;2.40;;
51124;SDS011;37163;55.556;39.108;2023-05-07T14:30:06;4.50;;;2.10;;
51124;SDS011;37163;55.556;39.108;2023-05-07T14:32:33;6.65;;;2.45;;
51124;SDS011;37163;55.556;39.108;2023-05-07T14:35:04;4.70;;;2.00;;
51124;SDS011;37163;55.556;39.108;2023-05-07T14:37:33;5.50;;;2.67;;
51124;SDS011;37163;55.556;39.108;2023-05-07T14:40:05;3.47;;;2.30;;
51124;SDS011;37163;55.556;39.108;2023-05-07T14:42:35;4.97;;;2.00;;
51124;SDS011;37163;55.556;39.108;2023-05-07T14:45:07;3.17;;;2.03;;
51124;SDS011;37163;55.556;39.108;2023-05-07T14:47:35;3.03;;;1.83;;
51124;SDS011;37163;55.556;39.108;2023-05-07T14:50:02;3.08;;;1.60;;
51124;SDS011;37163;55.556;39.108;2023-05-07T14:52:30;3.90;;;1.65;;
51124;SDS011;37163;55.556;39.108;2023-05-07T14:54:58;2.85;;;1.60;;
51124;SDS011;37163;55.556;39.108;2023-05-07T14:57:30;3.55;;;1.48;;
51124;SDS011;37163;55.556;39.108;2023-05-07T15:00:03;2.58;;;1.20;;
51124;SDS011;37163;55.556;39.108;2023-05-07T15:02:34;3.15;;;1.40;;
51124;SDS011;37163;55.556;39.108;2023-05-07T15:05:01;3.67;;;1.70;;